Time;durP1;ratioP1;P1;durP2;ratioP2;P2;SDS_P1;SDS_P2;PMS_P1;PMS_P2;Temp;Humidity;BMP_temperature;BMP_pressure;BME280_temperature;BME280_humidity;BME280_pressure;Samples;Min_cycle;Max_cycle;Signal;HPM_P1;HPM_P2
2023/01/23 00:02:14;;;;;;;28.17;14.75;;;;;;;;;;4998916;28;20049;-72
2023/01/23 00:04:39;;;;;;;33.83;14.55;;;;;;;;;;4994391;28;20043;-74
2023/01/23 00:07:05;;;;;;;27.58;13.57;;;;;;;;;;4997317;28;20061;-73
2023/01/23 00:09:30;;;;;;;31.20;13.93;;;;;;;;;;4995795;28;20046;-72
2023/01/23 00:11:56;;;;;;;34.20;15.07;;;;;;;;;;4995602;28;20045;-72
2023/01/23 00:14:21;;;;;;;27.48;12.93;;;;;;;;;;4996898;28;20038;-73
2023/01/23 00:16:47;;;;;;;30.42;13.95;;;;;;;;;;4995775;28;20042;-72
2023/01/23 00:19:12;;;;;;;27.92;13.90;;;;;;;;;;4987561;28;20049;-74
2023/01/23 00:21:38;;;;;;;31.20;12.70;;;;;;;;;;4993218;28;20034;-72
2023/01/23 00:24:04;;;;;;;31.10;13.82;;;;;;;;;;5003874;28;20062;-73
2023/01/23 00:26:31;;;;;;;31.90;14.57;;;;;;;;;;4994197;28;20041;-73
2023/01/23 00:28:56;;;;;;;30.70;14.40;;;;;;;;;;4995106;28;20054;-72
2023/01/23 00:31:25;;;;;;;30.02;13.40;;;;;;;;;;4997446;28;20042;-72
2023/01/23 00:33:58;;;;;;;33.13;13.93;;;;;;;;;;4995867;28;20038;-73
2023/01/23 00:36:27;;;;;;;31.83;14.70;;;;;;;;;;4973576;28;20035;-73
2023/01/23 00:38:53;;;;;;;28.13;13.95;;;;;;;;;;5000908;28;20121;-73
2023/01/23 00:41:18;;;;;;;32.80;14.82;;;;;;;;;;4998880;28;20101;-73
2023/01/23 00:43:45;;;;;;;35.67;15.18;;;;;;;;;;4995459;28;20478;-72
2023/01/23 00:46:11;;;;;;;29.83;14.70;;;;;;;;;;4993548;28;20493;-73
2023/01/23 00:48:36;;;;;;;33.25;15.10;;;;;;;;;;4994947;28;20049;-73
2023/01/23 00:51:01;;;;;;;29.65;14.30;;;;;;;;;;4993842;28;20042;-72
2023/01/23 00:53:27;;;;;;;27.15;13.75;;;;;;;;;;4994934;28;20045;-73
2023/01/23 00:55:53;;;;;;;30.10;15.43;;;;;;;;;;4992417;28;20097;-73
2023/01/23 00:58:18;;;;;;;32.97;13.88;;;;;;;;;;4997423;28;20035;-72
2023/01/23 01:00:44;;;;;;;26.58;12.35;;;;;;;;;;4993273;28;20041;-72
2023/01/23 01:03:09;;;;;;;31.23;13.82;;;;;;;;;;4997566;28;20029;-73
2023/01/23 01:05:35;;;;;;;33.15;14.73;;;;;;;;;;4998580;28;20058;-72
2023/01/23 01:08:00;;;;;;;40.13;15.02;;;;;;;;;;4994732;28;20035;-72
2023/01/23 01:10:28;;;;;;;31.00;14.48;;;;;;;;;;4992703;28;20038;-73
2023/01/23 01:12:55;;;;;;;25.05;14.05;;;;;;;;;;5000757;28;20549;-72
2023/01/23 01:15:20;;;;;;;31.40;14.43;;;;;;;;;;4993770;28;20117;-72
2023/01/23 01:17:45;;;;;;;29.55;14.60;;;;;;;;;;4994796;28;20164;-72
2023/01/23 01:20:11;;;;;;;28.25;14.48;;;;;;;;;;4993578;28;20509;-72
2023/01/23 01:22:37;;;;;;;30.02;13.75;;;;;;;;;;4994652;28;20526;-73
2023/01/23 01:25:02;;;;;;;34.08;14.13;;;;;;;;;;4993589;28;20045;-73
2023/01/23 01:27:28;;;;;;;27.92;13.30;;;;;;;;;;4997774;28;20062;-72
2023/01/23 01:29:53;;;;;;;27.17;14.07;;;;;;;;;;4995842;28;20121;-72
2023/01/23 01:32:19;;;;;;;32.67;14.00;;;;;;;;;;4995998;28;20374;-72
2023/01/23 01:34:44;;;;;;;25.00;13.88;;;;;;;;;;4990384;28;20096;-72
2023/01/23 01:37:09;;;;;;;29.92;13.55;;;;;;;;;;4992199;28;20045;-73
2023/01/23 01:39:35;;;;;;;33.22;14.27;;;;;;;;;;5008782;28;20038;-72
2023/01/23 01:42:00;;;;;;;35.30;14.85;;;;;;;;;;5004366;28;20120;-73
2023/01/23 01:44:26;;;;;;;33.22;14.75;;;;;;;;;;5008544;28;20151;-74
2023/01/23 01:46:52;;;;;;;29.48;13.25;;;;;;;;;;5002203;28;20097;-73
2023/01/23 01:49:23;;;;;;;29.08;13.90;;;;;;;;;;4997753;28;20053;-73
2023/01/23 01:51:52;;;;;;;30.58;13.02;;;;;;;;;;5002604;28;20050;-73
2023/01/23 01:54:27;;;;;;;27.33;13.77;;;;;;;;;;4998070;28;20128;-73
2023/01/23 01:57:11;;;;;;;25.80;12.75;;;;;;;;;;4995853;28;20034;-72
2023/01/23 01:59:41;;;;;;;;;;;;;;;;;;4998559;28;20390;-72
2023/01/23 02:02:47;;;;;;;26.83;11.43;;;;;;;;;;4994556;28;19914;-73
2023/01/23 02:05:16;;;;;;;32.25;13.63;;;;;;;;;;4993925;28;20125;-72
2023/01/23 02:08:02;;;;;;;31.35;12.32;;;;;;;;;;5003008;28;20053;-72
2023/01/23 02:10:28;;;;;;;24.15;11.75;;;;;;;;;;4994102;28;20050;-73
2023/01/23 02:12:53;;;;;;;25.65;11.55;;;;;;;;;;5002300;28;20046;-72
2023/01/23 02:15:20;;;;;;;27.35;12.07;;;;;;;;;;4996053;28;20041;-73
2023/01/23 02:17:47;;;;;;;26.40;11.63;;;;;;;;;;5000386;28;20109;-72
2023/01/23 02:20:19;;;;;;;27.45;11.43;;;;;;;;;;4998338;28;20045;-72
2023/01/23 02:22:52;;;;;;;34.25;11.95;;;;;;;;;;4998823;28;20123;-73
2023/01/23 02:25:50;;;;;;;24.95;11.35;;;;;;;;;;4997228;28;20034;-73
2023/01/23 02:28:16;;;;;;;28.50;11.75;;;;;;;;;;4997041;28;20042;-73
2023/01/23 02:30:45;;;;;;;27.52;12.45;;;;;;;;;;5001025;28;20084;-72
2023/01/23 02:33:20;;;;;;;26.55;11.15;;;;;;;;;;4996170;28;20446;-73
2023/01/23 02:35:46;;;;;;;22.10;11.50;;;;;;;;;;4997148;28;20382;-72
2023/01/23 02:38:12;;;;;;;32.30;13.68;;;;;;;;;;5004035;28;20088;-72
2023/01/23 02:40:40;;;;;;;29.63;13.40;;;;;;;;;;4996279;28;20113;-75
2023/01/23 02:43:07;;;;;;;31.08;14.13;;;;;;;;;;4998303;28;20034;-73
2023/01/23 02:45:32;;;;;;;33.80;12.60;;;;;;;;;;4995007;28;20027;-73
2023/01/23 02:48:00;;;;;;;33.10;12.82;;;;;;;;;;4996451;28;20087;-75
2023/01/23 02:50:26;;;;;;;25.85;10.95;;;;;;;;;;4996551;28;20042;-73
2023/01/23 02:52:53;;;;;;;38.65;14.50;;;;;;;;;;4997355;28;20105;-75
2023/01/23 02:55:19;;;;;;;21.33;12.40;;;;;;;;;;4993383;28;20073;-72
2023/01/23 02:57:45;;;;;;;22.58;11.25;;;;;;;;;;4997653;28;20050;-74
2023/01/23 03:00:21;;;;;;;39.95;13.30;;;;;;;;;;4997671;28;20532;-74
2023/01/23 03:02:48;;;;;;;25.65;11.85;;;;;;;;;;4997778;28;20032;-74
2023/01/23 03:05:14;;;;;;;29.35;13.70;;;;;;;;;;4995921;28;20060;-74
2023/01/23 03:07:39;;;;;;;30.55;13.15;;;;;;;;;;4997753;28;20501;-74
2023/01/23 03:10:06;;;;;;;26.90;12.50;;;;;;;;;;4995976;28;20623;-73
2023/01/23 03:12:32;;;;;;;26.10;12.30;;;;;;;;;;5002667;28;20043;-73
2023/01/23 03:14:57;;;;;;;28.73;12.32;;;;;;;;;;4996172;28;20133;-74
2023/01/23 03:17:23;;;;;;;25.85;11.57;;;;;;;;;;4994277;28;20042;-74
2023/01/23 03:19:49;;;;;;;31.05;13.48;;;;;;;;;;5000500;28;20051;-73
2023/01/23 03:22:14;;;;;;;34.50;13.25;;;;;;;;;;4999360;28;20041;-73
2023/01/23 03:24:39;;;;;;;35.78;12.82;;;;;;;;;;4996813;28;20065;-73
2023/01/23 03:27:05;;;;;;;25.92;13.45;;;;;;;;;;5004863;28;20030;-73
2023/01/23 03:32:14;;;;;;;29.95;12.98;;;;;;;;;;4995775;28;20041;-73
2023/01/23 03:34:41;;;;;;;25.52;12.85;;;;;;;;;;4996300;28;20030;-73
2023/01/23 03:37:07;;;;;;;29.42;12.65;;;;;;;;;;4993830;28;20391;-74
2023/01/23 03:42:16;;;;;;;35.28;13.25;;;;;;;;;;4995477;28;20108;-73
2023/01/23 03:44:42;;;;;;;28.50;12.73;;;;;;;;;;4995069;28;20116;-73
2023/01/23 03:47:07;;;;;;;29.65;13.95;;;;;;;;;;4995847;28;20180;-73
2023/01/23 03:49:33;;;;;;;29.05;12.60;;;;;;;;;;4995060;28;20145;-73
2023/01/23 03:51:58;;;;;;;29.00;11.45;;;;;;;;;;5001093;28;20207;-73
2023/01/23 03:54:24;;;;;;;30.33;12.63;;;;;;;;;;4996044;28;20045;-73
2023/01/23 03:56:49;;;;;;;26.35;12.45;;;;;;;;;;4994690;28;20538;-73
2023/01/23 03:59:14;;;;;;;34.63;12.27;;;;;;;;;;4995966;28;20489;-73
2023/01/23 04:01:40;;;;;;;29.88;12.93;;;;;;;;;;4996083;28;20043;-73
2023/01/23 04:04:05;;;;;;;30.67;12.15;;;;;;;;;;4994500;28;20030;-73
2023/01/23 04:06:31;;;;;;;30.92;13.70;;;;;;;;;;4993902;28;20038;-73
2023/01/23 04:08:57;;;;;;;35.28;14.93;;;;;;;;;;4995737;28;20035;-73
2023/01/23 04:11:23;;;;;;;29.80;14.05;;;;;;;;;;4994467;28;20462;-73
2023/01/23 04:13:49;;;;;;;35.15;13.73;;;;;;;;;;4994436;28;20042;-73
2023/01/23 04:16:14;;;;;;;27.73;12.50;;;;;;;;;;4993403;28;20035;-73
2023/01/23 04:18:39;;;;;;;30.30;13.48;;;;;;;;;;4995436;28;20030;-72
2023/01/23 04:21:05;;;;;;;30.08;12.80;;;;;;;;;;4994669;28;20529;-73
2023/01/23 04:23:30;;;;;;;27.30;12.23;;;;;;;;;;5004250;28;20042;-73
2023/01/23 04:25:56;;;;;;;32.88;12.15;;;;;;;;;;4992502;28;20419;-74
2023/01/23 04:28:21;;;;;;;24.25;11.85;;;;;;;;;;4992725;28;20041;-72
2023/01/23 04:30:49;;;;;;;26.50;11.82;;;;;;;;;;4995004;28;20042;-72
2023/01/23 04:33:14;;;;;;;26.67;12.00;;;;;;;;;;4995270;28;20073;-72
2023/01/23 04:35:48;;;;;;;28.00;11.23;;;;;;;;;;4994433;28;20441;-72
2023/01/23 04:38:13;;;;;;;28.67;12.10;;;;;;;;;;4999247;28;20077;-72
2023/01/23 04:40:39;;;;;;;31.45;12.57;;;;;;;;;;4994299;28;20089;-72
2023/01/23 04:43:04;;;;;;;24.25;11.80;;;;;;;;;;4997980;28;20041;-73
2023/01/23 04:45:29;;;;;;;24.83;11.95;;;;;;;;;;4993829;28;20050;-72
2023/01/23 04:47:55;;;;;;;24.95;12.75;;;;;;;;;;4997182;28;20025;-72
2023/01/23 04:50:20;;;;;;;27.52;12.25;;;;;;;;;;4994436;28;20493;-72
2023/01/23 04:52:45;;;;;;;27.80;12.02;;;;;;;;;;5001065;28;20125;-72
2023/01/23 04:55:11;;;;;;;26.38;11.35;;;;;;;;;;4993819;28;20058;-73
2023/01/23 04:57:36;;;;;;;28.08;12.80;;;;;;;;;;4993531;28;20117;-73
2023/01/23 05:00:02;;;;;;;26.33;11.52;;;;;;;;;;4996328;28;20049;-72
2023/01/23 05:02:28;;;;;;;34.78;13.05;;;;;;;;;;4996446;28;20030;-73
2023/01/23 05:04:53;;;;;;;29.52;12.70;;;;;;;;;;4994364;28;20034;-72
2023/01/23 05:07:18;;;;;;;31.80;12.05;;;;;;;;;;4994117;28;20097;-72
2023/01/23 05:09:44;;;;;;;28.73;11.15;;;;;;;;;;4994747;28;20430;-72
2023/01/23 05:12:09;;;;;;;25.35;12.90;;;;;;;;;;4994457;28;20106;-72
2023/01/23 05:14:34;;;;;;;24.35;12.30;;;;;;;;;;5002064;28;20057;-72
2023/01/23 05:17:00;;;;;;;30.77;13.32;;;;;;;;;;4993449;28;20077;-72
2023/01/23 05:19:25;;;;;;;34.13;13.23;;;;;;;;;;4997050;28;20066;-72
2023/01/23 05:21:51;;;;;;;27.77;12.60;;;;;;;;;;4996773;28;20069;-72
2023/01/23 05:24:16;;;;;;;28.70;12.77;;;;;;;;;;5002089;28;20061;-72
2023/01/23 05:26:41;;;;;;;29.02;12.43;;;;;;;;;;4993782;28;20102;-72
2023/01/23 05:29:07;;;;;;;31.08;11.20;;;;;;;;;;4994451;28;20112;-72
2023/01/23 05:31:32;;;;;;;25.30;11.15;;;;;;;;;;4993613;28;20386;-72
2023/01/23 05:33:58;;;;;;;25.20;12.38;;;;;;;;;;4993588;28;20046;-72
2023/01/23 05:36:23;;;;;;;29.33;11.50;;;;;;;;;;4993383;28;20077;-72
2023/01/23 05:38:49;;;;;;;28.45;11.27;;;;;;;;;;4995653;28;20121;-71
2023/01/23 05:41:14;;;;;;;29.90;10.52;;;;;;;;;;4993665;28;20468;-72
2023/01/23 05:43:39;;;;;;;24.80;10.98;;;;;;;;;;4997749;28;20082;-72
2023/01/23 05:46:05;;;;;;;26.23;9.90;;;;;;;;;;4993520;28;20045;-73
2023/01/23 05:48:30;;;;;;;22.02;10.57;;;;;;;;;;4996010;28;20042;-72
2023/01/23 05:50:56;;;;;;;19.65;8.95;;;;;;;;;;4993337;28;20154;-73
2023/01/23 05:53:21;;;;;;;19.17;10.07;;;;;;;;;;4999413;28;20038;-72
2023/01/23 05:55:46;;;;;;;23.00;10.18;;;;;;;;;;4993562;28;20030;-72
2023/01/23 05:58:12;;;;;;;23.65;11.40;;;;;;;;;;4998942;28;20109;-72
2023/01/23 06:00:37;;;;;;;25.95;10.75;;;;;;;;;;4998463;28;20458;-74
2023/01/23 06:03:03;;;;;;;24.17;12.55;;;;;;;;;;4994941;28;20037;-72
2023/01/23 06:05:28;;;;;;;31.42;11.90;;;;;;;;;;4993309;28;20074;-72
2023/01/23 06:07:54;;;;;;;24.00;11.80;;;;;;;;;;4999916;28;20023;-72
2023/01/23 06:10:19;;;;;;;30.05;12.63;;;;;;;;;;4991996;28;20030;-72
2023/01/23 06:12:44;;;;;;;23.05;11.95;;;;;;;;;;4994051;28;20042;-72
2023/01/23 06:15:10;;;;;;;31.60;11.68;;;;;;;;;;4993069;28;20088;-73
2023/01/23 06:17:36;;;;;;;26.35;10.98;;;;;;;;;;4994247;28;20035;-73
2023/01/23 06:20:01;;;;;;;27.98;11.40;;;;;;;;;;4992769;28;20046;-72
2023/01/23 06:22:27;;;;;;;25.45;11.52;;;;;;;;;;4994261;28;20026;-72
2023/01/23 06:24:52;;;;;;;35.70;11.80;;;;;;;;;;5001309;28;20482;-73
2023/01/23 06:27:18;;;;;;;24.60;12.15;;;;;;;;;;5003373;28;20252;-73
2023/01/23 06:29:43;;;;;;;29.30;12.13;;;;;;;;;;4997973;28;20045;-72
2023/01/23 06:32:08;;;;;;;26.13;12.20;;;;;;;;;;4995965;28;20073;-72
2023/01/23 06:34:35;;;;;;;24.63;10.80;;;;;;;;;;4992522;28;20042;-72
2023/01/23 06:37:01;;;;;;;25.38;10.70;;;;;;;;;;5002814;28;20026;-73
2023/01/23 06:39:26;;;;;;;24.77;11.00;;;;;;;;;;4995896;28;20038;-73
2023/01/23 06:41:51;;;;;;;25.90;11.90;;;;;;;;;;4997616;28;20042;-72
2023/01/23 06:44:17;;;;;;;30.50;11.77;;;;;;;;;;4997156;28;20073;-72
2023/01/23 06:46:42;;;;;;;31.35;12.05;;;;;;;;;;4996187;28;20053;-72
2023/01/23 06:49:09;;;;;;;26.08;11.98;;;;;;;;;;4997289;28;20045;-73
2023/01/23 06:51:34;;;;;;;32.78;11.73;;;;;;;;;;4997983;28;20072;-72
2023/01/23 06:53:59;;;;;;;27.10;11.77;;;;;;;;;;4997154;28;20061;-72
2023/01/23 06:56:25;;;;;;;26.90;11.45;;;;;;;;;;4995992;28;20402;-73
2023/01/23 06:58:50;;;;;;;25.08;11.20;;;;;;;;;;4997212;28;20030;-76
2023/01/23 07:01:17;;;;;;;24.05;10.75;;;;;;;;;;5002086;28;20093;-72
2023/01/23 07:03:44;;;;;;;26.83;11.13;;;;;;;;;;4998402;28;20092;-72
2023/01/23 07:06:13;;;;;;;26.77;11.57;;;;;;;;;;4995974;28;20030;-72
2023/01/23 07:08:39;;;;;;;24.52;11.00;;;;;;;;;;4987183;28;20049;-73
2023/01/23 07:11:05;;;;;;;22.48;10.77;;;;;;;;;;4990978;28;20034;-72
2023/01/23 07:13:30;;;;;;;23.35;10.25;;;;;;;;;;5003767;28;20069;-72
2023/01/23 07:15:56;;;;;;;24.73;11.10;;;;;;;;;;4995750;28;20471;-73
2023/01/23 07:18:22;;;;;;;25.58;10.35;;;;;;;;;;4996172;28;20042;-73
2023/01/23 07:20:51;;;;;;;22.88;10.30;;;;;;;;;;4995667;28;20038;-72
2023/01/23 07:23:16;;;;;;;23.35;11.20;;;;;;;;;;4985702;28;20081;-72
2023/01/23 07:25:42;;;;;;;29.55;12.15;;;;;;;;;;4995720;28;20069;-72
2023/01/23 07:28:07;;;;;;;29.50;12.10;;;;;;;;;;4999568;28;20478;-73
2023/01/23 07:30:33;;;;;;;33.05;12.18;;;;;;;;;;4996447;28;20049;-72
2023/01/23 07:32:58;;;;;;;28.85;11.77;;;;;;;;;;4998153;28;20065;-73
2023/01/23 07:35:24;;;;;;;31.48;11.20;;;;;;;;;;4995026;28;20033;-73
2023/01/23 07:37:49;;;;;;;31.45;11.50;;;;;;;;;;4997210;28;20406;-74
2023/01/23 07:40:15;;;;;;;29.67;11.50;;;;;;;;;;4994944;28;20093;-72
2023/01/23 07:42:40;;;;;;;23.88;10.38;;;;;;;;;;4997243;28;20033;-72
2023/01/23 07:45:08;;;;;;;32.22;12.00;;;;;;;;;;5005040;28;20038;-73
2023/01/23 07:47:34;;;;;;;26.35;10.77;;;;;;;;;;5016509;28;20124;-73
2023/01/23 07:50:00;;;;;;;23.67;11.88;;;;;;;;;;5026804;28;20041;-73
2023/01/23 07:52:25;;;;;;;25.30;11.30;;;;;;;;;;4999292;28;20050;-73
2023/01/23 07:54:50;;;;;;;25.08;10.90;;;;;;;;;;4996044;28;20113;-72
2023/01/23 07:57:16;;;;;;;28.80;10.68;;;;;;;;;;5006678;28;20048;-73
2023/01/23 07:59:41;;;;;;;30.17;10.80;;;;;;;;;;5009101;28;20112;-72
2023/01/23 08:02:09;;;;;;;24.75;9.60;;;;;;;;;;5005864;28;20068;-73
2023/01/23 08:04:35;;;;;;;24.75;10.48;;;;;;;;;;5011672;28;20505;-72
2023/01/23 08:07:00;;;;;;;19.48;10.13;;;;;;;;;;5004565;28;20034;-72
2023/01/23 08:09:25;;;;;;;26.23;10.20;;;;;;;;;;4675419;28;20047;-72
2023/01/23 08:11:51;;;;;;;28.73;10.95;;;;;;;;;;5012738;28;20454;-73
2023/01/23 08:14:16;;;;;;;20.38;9.18;;;;;;;;;;5016763;28;20109;-73
2023/01/23 08:16:42;;;;;;;26.92;11.65;;;;;;;;;;5022220;28;20091;-72
2023/01/23 08:19:07;;;;;;;20.67;10.02;;;;;;;;;;5023315;28;20087;-73
2023/01/23 08:21:33;;;;;;;20.73;9.90;;;;;;;;;;5026596;28;20750;-72
2023/01/23 08:24:00;;;;;;;28.73;11.68;;;;;;;;;;5026317;28;20060;-72
2023/01/23 08:26:26;;;;;;;20.35;9.27;;;;;;;;;;5025869;28;20021;-73
2023/01/23 08:28:51;;;;;;;24.52;10.25;;;;;;;;;;5032239;28;20033;-72
2023/01/23 08:31:16;;;;;;;23.15;10.32;;;;;;;;;;5028309;28;20033;-72
2023/01/23 08:33:42;;;;;;;19.98;10.18;;;;;;;;;;5023015;28;20084;-72
2023/01/23 08:36:08;;;;;;;21.70;10.27;;;;;;;;;;5030056;28;20079;-73
2023/01/23 08:38:34;;;;;;;25.35;11.55;;;;;;;;;;5021396;28;20073;-73
2023/01/23 08:41:00;;;;;;;28.98;10.70;;;;;;;;;;5014657;28;20502;-73
2023/01/23 08:43:26;;;;;;;22.02;10.95;;;;;;;;;;5021694;28;20034;-73
2023/01/23 08:45:53;;;;;;;33.47;11.52;;;;;;;;;;5028582;28;20481;-72
2023/01/23 08:48:20;;;;;;;24.73;10.13;;;;;;;;;;5031818;28;20496;-78
2023/01/23 08:50:45;;;;;;;25.73;9.48;;;;;;;;;;4975425;28;20060;-73
2023/01/23 08:53:11;;;;;;;23.30;10.20;;;;;;;;;;5013784;28;20494;-73
2023/01/23 08:55:37;;;;;;;23.83;10.82;;;;;;;;;;5014679;28;20458;-73
2023/01/23 08:58:07;;;;;;;32.55;11.57;;;;;;;;;;5021594;28;20095;-73
2023/01/23 09:00:32;;;;;;;25.85;11.15;;;;;;;;;;5013936;28;20042;-74
2023/01/23 09:02:59;;;;;;;27.10;11.27;;;;;;;;;;5021097;28;20104;-77
2023/01/23 09:05:26;;;;;;;17.83;10.20;;;;;;;;;;5017715;28;20034;-73
2023/01/23 09:07:51;;;;;;;22.65;10.23;;;;;;;;;;5024399;28;20493;-73
2023/01/23 09:10:16;;;;;;;25.38;10.02;;;;;;;;;;5022941;28;20037;-73
2023/01/23 09:12:42;;;;;;;19.30;9.25;;;;;;;;;;5014612;28;20116;-72
2023/01/23 09:15:09;;;;;;;20.52;11.00;;;;;;;;;;5019930;28;20199;-73
2023/01/23 09:17:34;;;;;;;30.02;15.30;;;;;;;;;;5019698;28;20426;-73
2023/01/23 09:20:00;;;;;;;30.85;13.57;;;;;;;;;;5022085;28;20080;-74
2023/01/23 09:22:25;;;;;;;22.63;12.90;;;;;;;;;;5003195;28;20046;-73
2023/01/23 09:24:51;;;;;;;33.63;14.38;;;;;;;;;;5017408;28;20415;-73
2023/01/23 09:27:17;;;;;;;43.58;19.35;;;;;;;;;;5017642;28;20172;-73
2023/01/23 09:29:42;;;;;;;41.88;19.45;;;;;;;;;;5022803;28;20124;-73
2023/01/23 09:32:08;;;;;;;42.05;20.25;;;;;;;;;;5017511;28;20493;-74
2023/01/23 09:34:33;;;;;;;42.25;19.63;;;;;;;;;;5018331;28;20589;-72
2023/01/23 09:36:58;;;;;;;32.70;15.98;;;;;;;;;;4997413;28;20038;-78
2023/01/23 09:39:24;;;;;;;32.70;15.95;;;;;;;;;;5015687;28;20429;-75
2023/01/23 09:41:49;;;;;;;30.50;15.75;;;;;;;;;;5016271;28;20030;-73
2023/01/23 09:44:22;;;;;;;30.95;16.67;;;;;;;;;;5014389;28;20088;-74
2023/01/23 09:46:53;;;;;;;31.52;16.30;;;;;;;;;;5016304;28;20021;-73
2023/01/23 09:49:47;;;;;;;29.83;16.40;;;;;;;;;;5021240;28;20084;-73
2023/01/23 09:52:18;;;;;;;28.77;15.38;;;;;;;;;;5024811;28;20566;-73
2023/01/23 09:54:47;;;;;;;29.70;14.40;;;;;;;;;;5027251;28;20033;-73
2023/01/23 09:57:19;;;;;;;27.15;12.30;;;;;;;;;;5010542;28;20378;-73
2023/01/23 09:59:55;;;;;;;20.60;11.00;;;;;;;;;;5011875;28;20069;-73
2023/01/23 10:02:21;;;;;;;23.27;12.98;;;;;;;;;;5014607;28;20044;-73
2023/01/23 10:04:51;;;;;;;16.38;9.93;;;;;;;;;;5011056;28;20042;-74
2023/01/23 10:07:32;;;;;;;22.70;10.30;;;;;;;;;;5025219;28;20034;-78
2023/01/23 10:10:02;;;;;;;21.77;9.52;;;;;;;;;;5020514;28;20402;-73
2023/01/23 10:12:47;;;;;;;17.33;10.10;;;;;;;;;;5018721;28;20041;-73
2023/01/23 10:15:19;;;;;;;16.70;9.15;;;;;;;;;;5016266;28;20466;-78
2023/01/23 10:17:54;;;;;;;19.63;9.98;;;;;;;;;;5015206;28;20063;-74
2023/01/23 10:20:38;;;;;;;16.20;8.95;;;;;;;;;;5023489;28;20060;-73
2023/01/23 10:23:35;;;;;;;17.50;9.02;;;;;;;;;;5016322;28;20065;-74
2023/01/23 10:26:02;;;;;;;15.02;8.23;;;;;;;;;;5015875;28;20117;-73
2023/01/23 10:28:38;;;;;;;19.17;9.05;;;;;;;;;;5013324;28;20030;-73
2023/01/23 10:31:14;;;;;;;15.73;8.85;;;;;;;;;;5014568;28;20572;-79
2023/01/23 10:33:56;;;;;;;16.92;9.02;;;;;;;;;;5019629;28;20620;-73
2023/01/23 10:36:27;;;;;;;14.45;7.95;;;;;;;;;;5021244;28;20053;-73
2023/01/23 10:39:07;;;;;;;13.75;7.95;;;;;;;;;;5013102;28;20129;-73
2023/01/23 10:41:33;;;;;;;16.85;9.40;;;;;;;;;;5011337;28;20041;-75
2023/01/23 10:43:59;;;;;;;15.50;8.90;;;;;;;;;;5028083;28;20029;-73
2023/01/23 10:46:43;;;;;;;15.95;8.35;;;;;;;;;;5017276;28;20064;-73
2023/01/23 10:49:08;;;;;;;19.38;10.00;;;;;;;;;;5025114;28;20041;-73
2023/01/23 10:51:44;;;;;;;16.30;8.68;;;;;;;;;;5019284;28;20046;-73
2023/01/23 10:54:18;;;;;;;17.50;9.10;;;;;;;;;;5019760;28;20048;-73
2023/01/23 10:57:17;;;;;;;18.50;9.75;;;;;;;;;;5021647;28;20046;-73
2023/01/23 11:00:04;;;;;;;18.55;9.75;;;;;;;;;;5023494;28;20041;-73
2023/01/23 11:02:35;;;;;;;19.35;9.38;;;;;;;;;;5021098;28;20095;-74
2023/01/23 11:05:23;;;;;;;19.75;9.43;;;;;;;;;;4975353;28;20045;-73
2023/01/23 11:07:54;;;;;;;15.68;9.40;;;;;;;;;;5015914;28;20067;-73
2023/01/23 11:10:21;;;;;;;18.02;9.90;;;;;;;;;;5000820;28;20099;-74
2023/01/23 11:12:50;;;;;;;20.90;11.38;;;;;;;;;;5018940;28;20478;-74
2023/01/23 11:15:24;;;;;;;20.20;12.00;;;;;;;;;;5012500;28;20026;-78
2023/01/23 11:17:50;;;;;;;22.17;12.10;;;;;;;;;;5023551;28;20455;-73
2023/01/23 11:20:37;;;;;;;20.83;11.63;;;;;;;;;;5033336;28;20033;-73
2023/01/23 11:23:15;;;;;;;24.35;11.35;;;;;;;;;;5010625;28;20144;-75
2023/01/23 11:25:41;;;;;;;21.95;12.40;;;;;;;;;;5022323;28;20033;-73
2023/01/23 11:28:32;;;;;;;21.17;11.80;;;;;;;;;;5017943;28;20045;-73
2023/01/23 11:31:07;;;;;;;19.38;11.10;;;;;;;;;;5015360;28;20044;-74
2023/01/23 11:33:51;;;;;;;18.75;9.80;;;;;;;;;;5025313;28;20042;-74
2023/01/23 11:36:17;;;;;;;21.10;10.15;;;;;;;;;;5014536;28;20093;-73
2023/01/23 11:38:46;;;;;;;18.73;9.77;;;;;;;;;;5020458;28;20080;-73
2023/01/23 11:41:12;;;;;;;20.75;11.43;;;;;;;;;;5018829;28;20029;-72
2023/01/23 11:43:38;;;;;;;18.52;11.05;;;;;;;;;;5024496;28;20170;-73
2023/01/23 11:46:20;;;;;;;22.55;11.07;;;;;;;;;;5023930;28;20042;-77
2023/01/23 11:49:10;;;;;;;21.98;10.55;;;;;;;;;;5018733;28;20032;-73
2023/01/23 11:51:47;;;;;;;16.48;10.35;;;;;;;;;;5027659;28;20069;-73
2023/01/23 11:54:38;;;;;;;16.15;10.15;;;;;;;;;;5027364;28;20384;-73
2023/01/23 11:57:48;;;;;;;18.55;9.55;;;;;;;;;;5010982;28;20486;-75
2023/01/23 12:00:32;;;;;;;14.65;8.45;;;;;;;;;;5010947;28;20636;-77
2023/01/23 12:03:00;;;;;;;15.60;7.32;;;;;;;;;;5011332;28;20045;-74
2023/01/23 12:05:40;;;;;;;17.23;8.30;;;;;;;;;;5016498;28;20088;-73
2023/01/23 12:08:24;;;;;;;11.77;6.72;;;;;;;;;;5017646;28;20041;-73
2023/01/23 12:11:09;;;;;;;10.57;6.55;;;;;;;;;;5019097;28;20029;-74
2023/01/23 12:14:11;;;;;;;17.00;7.10;;;;;;;;;;5015825;28;20543;-73
2023/01/23 12:16:58;;;;;;;8.80;5.85;;;;;;;;;;4998614;28;20042;-73
2023/01/23 12:19:29;;;;;;;8.95;4.40;;;;;;;;;;5000269;28;20041;-74
2023/01/23 12:22:13;;;;;;;8.63;5.13;;;;;;;;;;5020547;28;20041;-77
2023/01/23 12:24:52;;;;;;;8.38;4.93;;;;;;;;;;5010561;28;20050;-74
2023/01/23 12:27:33;;;;;;;10.15;5.50;;;;;;;;;;5000477;28;20041;-74
2023/01/23 12:30:10;;;;;;;7.55;4.45;;;;;;;;;;5014555;28;20041;-73
2023/01/23 12:32:55;;;;;;;13.80;4.72;;;;;;;;;;5012204;28;20025;-73
2023/01/23 12:35:21;;;;;;;7.10;4.55;;;;;;;;;;5016795;28;20033;-74
2023/01/23 12:38:15;;;;;;;7.70;4.50;;;;;;;;;;5019077;28;20466;-73
2023/01/23 12:40:43;;;;;;;6.55;4.18;;;;;;;;;;5021161;28;20045;-73
2023/01/23 12:43:21;;;;;;;7.97;4.15;;;;;;;;;;5022844;28;20685;-73
2023/01/23 12:46:00;;;;;;;11.75;5.07;;;;;;;;;;5008384;28;20046;-73
2023/01/23 12:48:31;;;;;;;10.73;4.72;;;;;;;;;;5012884;28;20044;-73
2023/01/23 12:51:07;;;;;;;9.32;4.85;;;;;;;;;;5012968;28;20060;-73
2023/01/23 12:53:36;;;;;;;8.13;4.20;;;;;;;;;;5017440;28;20030;-73
2023/01/23 12:56:29;;;;;;;10.35;4.68;;;;;;;;;;5024659;28;20080;-73
2023/01/23 12:59:14;;;;;;;10.32;4.40;;;;;;;;;;5019657;28;20041;-73
2023/01/23 13:01:48;;;;;;;7.57;4.43;;;;;;;;;;5011727;28;20053;-73
2023/01/23 13:04:22;;;;;;;8.40;4.38;;;;;;;;;;5011160;28;20045;-73
2023/01/23 13:06:48;;;;;;;7.40;4.47;;;;;;;;;;5015980;28;20082;-72
2023/01/23 13:09:28;;;;;;;9.18;4.22;;;;;;;;;;5018072;28;20041;-73
2023/01/23 13:12:28;;;;;;;10.35;4.75;;;;;;;;;;5009755;28;20115;-74
2023/01/23 13:15:18;;;;;;;14.02;4.22;;;;;;;;;;5014080;28;20113;-77
2023/01/23 13:18:00;;;;;;;6.15;3.45;;;;;;;;;;5008789;28;20050;-73
2023/01/23 13:23:32;;;;;;;6.07;3.83;;;;;;;;;;5008838;28;20056;-74
2023/01/23 13:26:21;;;;;;;7.38;4.50;;;;;;;;;;5022791;28;20025;-73
2023/01/23 13:28:54;;;;;;;9.63;4.22;;;;;;;;;;5019172;28;20038;-74
2023/01/23 13:31:33;;;;;;;10.13;4.63;;;;;;;;;;5019981;28;20071;-75
2023/01/23 13:33:59;;;;;;;8.85;4.10;;;;;;;;;;5018485;28;20052;-73
2023/01/23 13:36:32;;;;;;;9.35;5.28;;;;;;;;;;5016125;28;20128;-74
2023/01/23 13:39:00;;;;;;;10.02;4.60;;;;;;;;;;5019432;28;20048;-73
2023/01/23 13:41:30;;;;;;;8.38;4.40;;;;;;;;;;5019209;28;20076;-75
2023/01/23 13:44:04;;;;;;;9.00;4.78;;;;;;;;;;4997510;28;20044;-77
2023/01/23 13:46:57;;;;;;;7.63;4.20;;;;;;;;;;5011807;28;20041;-74
2023/01/23 13:49:50;;;;;;;7.43;3.92;;;;;;;;;;5008586;28;20049;-73
2023/01/23 13:57:58;;;;;;;10.45;4.90;;;;;;;;;;5014309;28;20095;-73
2023/01/23 14:00:24;;;;;;;10.55;5.65;;;;;;;;;;5024914;28;20425;-75
2023/01/23 14:06:30;;;;;;;18.40;9.02;;;;;;;;;;4994862;28;20092;-73
2023/01/23 14:08:55;;;;;;;10.38;6.20;;;;;;;;;;5052280;28;20378;-73
2023/01/23 14:11:21;;;;;;;13.43;6.57;;;;;;;;;;5027175;28;20095;-74
2023/01/23 14:16:08;;;;;;;14.02;6.78;;;;;;;;;;5014689;28;20033;-73
2023/01/23 14:16:42;;;;;;;15.23;7.47;;;;;;;;;;5026098;28;20054;-73
2023/01/23 14:19:25;;;;;;;14.00;7.10;;;;;;;;;;5021383;28;20072;-74
2023/01/23 14:21:54;;;;;;;11.35;6.43;;;;;;;;;;5037230;28;20050;-73
2023/01/23 14:24:28;;;;;;;14.00;6.28;;;;;;;;;;5019160;28;20055;-73
2023/01/23 14:27:06;;;;;;;12.10;6.95;;;;;;;;;;5014614;28;20042;-73
2023/01/23 14:29:31;;;;;;;14.50;6.50;;;;;;;;;;5019291;28;20181;-73
2023/01/23 14:31:56;;;;;;;9.93;6.25;;;;;;;;;;5016775;28;20121;-73
2023/01/23 14:34:23;;;;;;;10.05;6.15;;;;;;;;;;5015181;28;20042;-73
2023/01/23 14:37:01;;;;;;;11.30;6.22;;;;;;;;;;5010838;28;20415;-73
2023/01/23 14:39:28;;;;;;;15.48;6.63;;;;;;;;;;5019360;28;20529;-73
2023/01/23 14:41:56;;;;;;;13.23;6.63;;;;;;;;;;5024997;28;20075;-73
2023/01/23 14:44:25;;;;;;;16.13;7.05;;;;;;;;;;5019427;28;20084;-74
2023/01/23 14:46:56;;;;;;;12.68;7.20;;;;;;;;;;5042321;28;20125;-73
2023/01/23 14:49:48;;;;;;;13.15;6.07;;;;;;;;;;5017772;28;20060;-75
2023/01/23 14:52:39;;;;;;;11.45;5.50;;;;;;;;;;5015963;28;20085;-73
2023/01/23 14:55:22;;;;;;;13.18;6.35;;;;;;;;;;5029657;28;20448;-73